地図

経路データ

SID SEASON NUMBER BASIN SUBBASIN NAME ISO_TIME NATURE LAT LON WMO_WIND WMO_PRES WMO_AGENCY TRACK_TYPE DIST2LAND LANDFALL IFLAG USA_AGENCY USA_ATCF_ID USA_LAT USA_LON USA_RECORD USA_STATUS USA_WIND USA_PRES USA_SSHS USA_R34_NE USA_R34_SE USA_R34_SW USA_R34_NW USA_R50_NE USA_R50_SE USA_R50_SW USA_R50_NW USA_R64_NE USA_R64_SE USA_R64_SW USA_R64_NW USA_POCI USA_ROCI USA_RMW USA_EYE TOKYO_LAT TOKYO_LON TOKYO_GRADE TOKYO_WIND TOKYO_PRES TOKYO_R50_DIR TOKYO_R50_LONG TOKYO_R50_SHORT TOKYO_R30_DIR TOKYO_R30_LONG TOKYO_R30_SHORT TOKYO_LAND CMA_LAT CMA_LON CMA_CAT CMA_WIND CMA_PRES HKO_LAT HKO_LON HKO_CAT HKO_WIND HKO_PRES NEWDELHI_LAT NEWDELHI_LON NEWDELHI_GRADE NEWDELHI_WIND NEWDELHI_PRES NEWDELHI_CI NEWDELHI_DP NEWDELHI_POCI REUNION_LAT REUNION_LON REUNION_TYPE REUNION_WIND REUNION_PRES REUNION_TNUM REUNION_CI REUNION_RMW REUNION_R34_NE REUNION_R34_SE REUNION_R34_SW REUNION_R34_NW REUNION_R50_NE REUNION_R50_SE REUNION_R50_SW REUNION_R50_NW REUNION_R64_NE REUNION_R64_SE REUNION_R64_SW REUNION_R64_NW BOM_LAT BOM_LON BOM_TYPE BOM_WIND BOM_PRES BOM_TNUM BOM_CI BOM_RMW BOM_R34_NE BOM_R34_SE BOM_R34_SW BOM_R34_NW BOM_R50_NE BOM_R50_SE BOM_R50_SW BOM_R50_NW BOM_R64_NE BOM_R64_SE BOM_R64_SW BOM_R64_NW BOM_ROCI BOM_POCI BOM_EYE BOM_POS_METHOD BOM_PRES_METHOD NADI_LAT NADI_LON NADI_CAT NADI_WIND NADI_PRES WELLINGTON_LAT WELLINGTON_LON WELLINGTON_WIND WELLINGTON_PRES DS824_LAT DS824_LON DS824_STAGE DS824_WIND DS824_PRES TD9636_LAT TD9636_LON TD9636_STAGE TD9636_WIND TD9636_PRES TD9635_LAT TD9635_LON TD9635_WIND TD9635_PRES TD9635_ROCI NEUMANN_LAT NEUMANN_LON NEUMANN_CLASS NEUMANN_WIND NEUMANN_PRES MLC_LAT MLC_LON MLC_CLASS MLC_WIND MLC_PRES USA_GUST BOM_GUST BOM_GUST_PER REUNION_GUST REUNION_GUST_PER USA_SEAHGT USA_SEARAD_NE USA_SEARAD_SE USA_SEARAD_SW USA_SEARAD_NW STORM_SPEED STORM_DIR
1981255N14311 1981 78 NA NA HARVEY 1981-09-11 18:00:00 TS 14.0000 -49.0000 25 1009 hurdat_atl main 1059 1059 O_____________ hurdat_atl AL161981 14.0000 -49.0000 TD 25 1009 -1 21 310
1981255N14311 1981 78 NA NA HARVEY 1981-09-11 21:00:00 TS 14.6604 -49.8197 main 1096 1092 P_____________ AL161981 14.6604 -49.8197 TD 25 1007 -1 22 310
1981255N14311 1981 78 NA NA HARVEY 1981-09-12 00:00:00 TS 15.4000 -50.7000 25 1006 hurdat_atl main 1130 1126 O_____________ hurdat_atl AL161981 15.4000 -50.7000 TD 25 1006 -1 24 312
1981255N14311 1981 78 NA NA HARVEY 1981-09-12 03:00:00 TS 16.2573 -51.6773 main 1185 1148 P_____________ AL161981 16.2573 -51.6773 TD 25 1004 -1 26 312
1981255N14311 1981 78 NA NA HARVEY 1981-09-12 06:00:00 TS 17.1000 -52.7000 25 1003 hurdat_atl main 1147 1118 O_____________ hurdat_atl AL161981 17.1000 -52.7000 TD 25 1003 -1 25 308
1981255N14311 1981 78 NA NA HARVEY 1981-09-12 09:00:00 TS 17.8024 -53.7304 main 1118 1094 P_____________ AL161981 17.8024 -53.7304 TD 27 1002 -1 23 304
1981255N14311 1981 78 NA NA HARVEY 1981-09-12 12:00:00 TS 18.4000 -54.7000 30 1001 hurdat_atl main 1096 1065 O_____________ hurdat_atl AL161981 18.4000 -54.7000 TD 30 1001 -1 21 303
1981255N14311 1981 78 NA NA HARVEY 1981-09-12 15:00:00 TS 18.9368 -55.5383 main 1065 984 P_____________ AL161981 18.9368 -55.5383 TD 35 998 0 18 303
1981255N14311 1981 78 NA NA HARVEY 1981-09-12 18:00:00 TS 19.4000 -56.3000 40 995 hurdat_atl main 984 917 O_____________ hurdat_atl AL161981 19.4000 -56.3000 TS 40 995 0 17 301
1981255N14311 1981 78 NA NA HARVEY 1981-09-12 21:00:00 TS 19.7996 -57.0583 main 906 842 P_____________ AL161981 19.7996 -57.0583 TS 55 992 0 16 300
1981255N14311 1981 78 NA NA HARVEY 1981-09-13 00:00:00 TS 20.2000 -57.8000 70 990 hurdat_atl main 842 783 O_____________ hurdat_atl AL161981 20.2000 -57.8000 HU 70 990 1 17 302
1981255N14311 1981 78 NA NA HARVEY 1981-09-13 03:00:00 TS 20.6849 -58.5651 main 777 729 P_____________ AL161981 20.6849 -58.5651 HU 70 987 1 17 305
1981255N14311 1981 78 NA NA HARVEY 1981-09-13 06:00:00 TS 21.2000 -59.3000 70 985 hurdat_atl main 729 691 O_____________ hurdat_atl AL161981 21.2000 -59.3000 HU 70 985 1 17 307
1981255N14311 1981 78 NA NA HARVEY 1981-09-13 09:00:00 TS 21.7074 -60.0026 main 691 672 P_____________ AL161981 21.7074 -60.0026 HU 72 984 1 16 310
1981255N14311 1981 78 NA NA HARVEY 1981-09-13 12:00:00 TS 22.2000 -60.6000 75 983 hurdat_atl main 672 670 O_____________ hurdat_atl AL161981 22.2000 -60.6000 HU 75 983 1 14 314
1981255N14311 1981 78 NA NA HARVEY 1981-09-13 15:00:00 TS 22.6496 -61.0531 main 663 663 P_____________ AL161981 22.6496 -61.0531 HU 77 981 1 12 321
1981255N14311 1981 78 NA NA HARVEY 1981-09-13 18:00:00 TS 23.1000 -61.4000 80 980 hurdat_atl main 683 683 O_____________ hurdat_atl AL161981 23.1000 -61.4000 HU 80 980 1 11 327
1981255N14311 1981 78 NA NA HARVEY 1981-09-13 21:00:00 TS 23.5849 -61.7228 main 708 702 P_____________ AL161981 23.5849 -61.7228 HU 82 979 1 11 331
1981255N14311 1981 78 NA NA HARVEY 1981-09-14 00:00:00 TS 24.1000 -62.0000 85 978 hurdat_atl main 738 738 O_____________ hurdat_atl AL161981 24.1000 -62.0000 HU 85 978 2 12 334
1981255N14311 1981 78 NA NA HARVEY 1981-09-14 03:00:00 TS 24.6350 -62.2800 main 772 772 P_____________ AL161981 24.6350 -62.2800 HU 87 977 2 12 338
1981255N14311 1981 78 NA NA HARVEY 1981-09-14 06:00:00 TS 25.2000 -62.5000 90 976 hurdat_atl main 824 824 O_____________ hurdat_atl AL161981 25.2000 -62.5000 HU 90 976 2 12 345
1981255N14311 1981 78 NA NA HARVEY 1981-09-14 09:00:00 TS 25.7924 -62.6303 main 883 883 P_____________ AL161981 25.7924 -62.6303 HU 92 968 2 12 351
1981255N14311 1981 78 NA NA HARVEY 1981-09-14 12:00:00 TS 26.4000 -62.7000 95 960 hurdat_atl main 942 942 O_____________ hurdat_atl AL161981 26.4000 -62.7000 HU 95 960 2 13 354
1981255N14311 1981 78 NA NA HARVEY 1981-09-14 15:00:00 TS 27.0300 -62.7798 main 1003 1003 P_____________ AL161981 27.0300 -62.7798 HU 102 956 3 12 356
1981255N14311 1981 78 NA NA HARVEY 1981-09-14 18:00:00 TS 27.6000 -62.8000 110 952 hurdat_atl main 1067 1067 O_____________ hurdat_atl AL161981 27.6000 -62.8000 HU 110 952 3 10 2
1981255N14311 1981 78 NA NA HARVEY 1981-09-14 21:00:00 TS 28.0075 -62.7300 main 1113 1113 P_____________ AL161981 28.0075 -62.7300 HU 112 949 3 8 13
1981255N14311 1981 78 NA NA HARVEY 1981-09-15 00:00:00 TS 28.4000 -62.6000 115 946 hurdat_atl main 1158 1158 O_____________ hurdat_atl AL161981 28.4000 -62.6000 HU 115 946 4 9 12
1981255N14311 1981 78 NA NA HARVEY 1981-09-15 03:00:00 TS 28.9121 -62.5163 main 1215 1215 P_____________ AL161981 28.9121 -62.5163 HU 112 949 3 11 13
1981255N14311 1981 78 NA NA HARVEY 1981-09-15 06:00:00 TS 29.5000 -62.3000 110 952 hurdat_atl main 1284 1284 O_____________ hurdat_atl AL161981 29.5000 -62.3000 HU 110 952 3 14 27
1981255N14311 1981 78 NA NA HARVEY 1981-09-15 09:00:00 TS 30.1355 -61.7958 main 1362 1362 P_____________ AL161981 30.1355 -61.7958 HU 107 955 3 16 36
1981255N14311 1981 78 NA NA HARVEY 1981-09-15 12:00:00 TS 30.8000 -61.2000 105 958 hurdat_atl main 1436 1404 O_____________ hurdat_atl AL161981 30.8000 -61.2000 HU 105 958 3 16 34
1981255N14311 1981 78 NA NA HARVEY 1981-09-15 15:00:00 TS 31.4645 -60.7490 main 1395 1342 P_____________ AL161981 31.4645 -60.7490 HU 102 960 3 15 31
1981255N14311 1981 78 NA NA HARVEY 1981-09-15 18:00:00 TS 32.1000 -60.3000 100 963 hurdat_atl main 1342 1301 O_____________ hurdat_atl AL161981 32.1000 -60.3000 HU 100 963 3 15 34
1981255N14311 1981 78 NA NA HARVEY 1981-09-15 21:00:00 TS 32.6723 -59.7719 main 1294 1262 P_____________ AL161981 32.6723 -59.7719 HU 95 966 2 14 40
1981255N14311 1981 78 NA NA HARVEY 1981-09-16 00:00:00 TS 33.2000 -59.2000 90 970 hurdat_atl main 1262 1230 O_____________ hurdat_atl AL161981 33.2000 -59.2000 HU 90 970 2 14 43
1981255N14311 1981 78 NA NA HARVEY 1981-09-16 03:00:00 TS 33.7298 -58.6073 main 1234 1206 P_____________ AL161981 33.7298 -58.6073 HU 87 972 2 14 45
1981255N14311 1981 78 NA NA HARVEY 1981-09-16 06:00:00 TS 34.2000 -58.0000 85 975 hurdat_atl main 1210 1195 O_____________ hurdat_atl AL161981 34.2000 -58.0000 HU 85 975 2 13 49
1981255N14311 1981 78 NA NA HARVEY 1981-09-16 09:00:00 TS 34.5948 -57.3921 main 1200 1195 P_____________ AL161981 34.5948 -57.3921 HU 82 977 1 12 55
1981255N14311 1981 78 NA NA HARVEY 1981-09-16 12:00:00 TS 34.9000 -56.8000 80 980 hurdat_atl main 1202 1191 O_____________ hurdat_atl AL161981 34.9000 -56.8000 HU 80 980 1 11 61
1981255N14311 1981 78 NA NA HARVEY 1981-09-16 15:00:00 TS 35.1223 -56.2268 main 1197 1188 P_____________ AL161981 35.1223 -56.2268 HU 72 985 1 10 66
1981255N14311 1981 78 NA NA HARVEY 1981-09-16 18:00:00 TS 35.3000 -55.7000 65 990 hurdat_atl main 1191 1181 O_____________ hurdat_atl AL161981 35.3000 -55.7000 HU 65 990 1 9 64
1981255N14311 1981 78 NA NA HARVEY 1981-09-16 21:00:00 TS 35.5146 -55.2424 main 1188 1178 P_____________ AL161981 35.5146 -55.2424 HU 65 990 1 8 61
1981255N14311 1981 78 NA NA HARVEY 1981-09-17 00:00:00 TS 35.7000 -54.8000 65 991 hurdat_atl main 1182 1179 O_____________ hurdat_atl AL161981 35.7000 -54.8000 HU 65 991 1 8 69
1981255N14311 1981 78 NA NA HARVEY 1981-09-17 03:00:00 TS 35.8073 -54.3145 main 1191 1189 P_____________ AL161981 35.8073 -54.3145 HU 65 991 1 8 76
1981255N14311 1981 78 NA NA HARVEY 1981-09-17 06:00:00 TS 35.9000 -53.8000 65 992 hurdat_atl main 1190 1179 O_____________ hurdat_atl AL161981 35.9000 -53.8000 HU 65 992 1 9 74
1981255N14311 1981 78 NA NA HARVEY 1981-09-17 09:00:00 TS 36.0420 -53.2798 main 1179 1157 P_____________ AL161981 36.0420 -53.2798 HU 65 992 1 9 71
1981255N14311 1981 78 NA NA HARVEY 1981-09-17 12:00:00 TS 36.2000 -52.7000 65 993 hurdat_atl main 1157 1147 O_____________ hurdat_atl AL161981 36.2000 -52.7000 HU 65 993 1 11 74
1981255N14311 1981 78 NA NA HARVEY 1981-09-17 15:00:00 TS 36.3275 -52.0217 main 1150 1132 P_____________ AL161981 36.3275 -52.0217 HU 65 994 1 12 75
1981255N14311 1981 78 NA NA HARVEY 1981-09-17 18:00:00 TS 36.5000 -51.3000 65 995 hurdat_atl main 1134 1109 O_____________ hurdat_atl AL161981 36.5000 -51.3000 HU 65 995 1 12 68
1981255N14311 1981 78 NA NA HARVEY 1981-09-17 21:00:00 TS 36.7917 -50.6227 main 1110 1088 P_____________ AL161981 36.7917 -50.6227 HU 65 995 1 13 62
1981255N14311 1981 78 NA NA HARVEY 1981-09-18 00:00:00 TS 37.1000 -49.9000 65 996 hurdat_atl main 1090 1082 O_____________ hurdat_atl AL161981 37.1000 -49.9000 HU 65 996 1 14 67
1981255N14311 1981 78 NA NA HARVEY 1981-09-18 03:00:00 TS 37.3153 -49.0495 main 1090 1082 P_____________ AL161981 37.3153 -49.0495 HU 65 996 1 14 74
1981255N14311 1981 78 NA NA HARVEY 1981-09-18 06:00:00 TS 37.5000 -48.2000 65 997 hurdat_atl main 1091 1087 O_____________ hurdat_atl AL161981 37.5000 -48.2000 HU 65 997 1 13 73
1981255N14311 1981 78 NA NA HARVEY 1981-09-18 09:00:00 TS 37.6989 -47.4918 main 1094 1091 P_____________ AL161981 37.6989 -47.4918 HU 60 997 0 12 70
1981255N14311 1981 78 NA NA HARVEY 1981-09-18 12:00:00 TS 37.9000 -46.8000 55 998 hurdat_atl main 1099 1097 O_____________ hurdat_atl AL161981 37.9000 -46.8000 TS 55 998 0 12 70
1981255N14311 1981 78 NA NA HARVEY 1981-09-18 15:00:00 TS 38.1137 -46.0599 main 1108 1107 P_____________ AL161981 38.1137 -46.0599 TS 50 1000 0 13 72
1981255N14311 1981 78 NA NA HARVEY 1981-09-18 18:00:00 TS 38.3000 -45.2000 45 1002 hurdat_atl main 1130 1130 O_____________ hurdat_atl AL161981 38.3000 -45.2000 TS 45 1002 0 15 77
1981255N14311 1981 78 NA NA HARVEY 1981-09-18 21:00:00 TS 38.4446 -44.1607 main 1169 1165 P_____________ AL161981 38.4446 -44.1607 TS 40 1003 0 17 83
1981255N14311 1981 78 NA NA HARVEY 1981-09-19 00:00:00 TS 38.5000 -43.0000 35 1005 hurdat_atl main 1224 1224 O_____________ hurdat_atl AL161981 38.5000 -43.0000 TS 35 1005 0 18 90
1981255N14311 1981 78 NA NA HARVEY 1981-09-19 03:00:00 TS 38.4287 -41.8289 main 1300 1300 P_____________ AL161981 38.4287 -41.8289 TS 30 1005 -1 19 96
1981255N14311 1981 78 NA NA HARVEY 1981-09-19 06:00:00 ET 38.3000 -40.6000 25 1006 hurdat_atl main 1380 1380 O_____________ hurdat_atl AL161981 38.3000 -40.6000 EX 25 1006 -4 20 96
1981255N14311 1981 78 NA NA HARVEY 1981-09-19 09:00:00 ET 38.2138 -39.3236 main 1468 1468 P_____________ AL161981 38.2138 -39.3236 EX 25 1006 -4 20 96
1981255N14311 1981 78 NA NA HARVEY 1981-09-19 12:00:00 ET 38.1000 -38.0000 25 1007 hurdat_atl main 1557 1557 O_____________ hurdat_atl AL161981 38.1000 -38.0000 EX 25 1007 -4 21 97
1981255N14311 1981 78 NA NA HARVEY 1981-09-19 15:00:00 ET 37.9592 -36.6445 main 1655 1655 P_____________ AL161981 37.9592 -36.6445 EX 25 1007 -4 22 101
1981255N14311 1981 78 NA NA HARVEY 1981-09-19 18:00:00 ET 37.7000 -35.3000 25 1008 hurdat_atl main 1763 1763 O_____________ hurdat_atl AL161981 37.7000 -35.3000 EX 25 1008 -4 22 109
1981255N14311 1981 78 NA NA HARVEY 1981-09-19 21:00:00 ET 37.2571 -34.0230 main 1879 1770 P_____________ AL161981 37.2571 -34.0230 EX 25 1008 -4 22 117
1981255N14311 1981 78 NA NA HARVEY 1981-09-20 00:00:00 ET 36.7000 -32.8000 25 1009 hurdat_atl main 1762 O_____________ hurdat_atl AL161981 36.7000 -32.8000 EX 25 1009 -4 23 120

IBTrACS Databaseについて

本データベースは、米国NOAAが公開する1842年以降の世界の熱帯低気圧のベストトラックデータアーカイブInternational Best Track Archive for Climate Stewardship (IBTrACS)を、ウェブで閲覧しやすい形式に変換したものです。

最終更新日:2021-11-26